sensor_id;sensor_type;location;lat;lon;timestamp;temperature;humidity
7566;DHT22;3824;48.010;7.832;2022-08-14T00:00:42;23.00;61.30
7566;DHT22;3824;48.010;7.832;2022-08-14T00:03:17;22.90;61.30
7566;DHT22;3824;48.010;7.832;2022-08-14T00:05:44;22.90;61.50
7566;DHT22;3824;48.010;7.832;2022-08-14T00:08:11;22.80;61.30
7566;DHT22;3824;48.010;7.832;2022-08-14T00:10:40;22.80;61.70
7566;DHT22;3824;48.010;7.832;2022-08-14T00:13:07;22.80;62.10
7566;DHT22;3824;48.010;7.832;2022-08-14T00:15:37;22.80;61.80
7566;DHT22;3824;48.010;7.832;2022-08-14T00:18:05;22.70;61.50
7566;DHT22;3824;48.010;7.832;2022-08-14T00:20:35;22.70;61.70
7566;DHT22;3824;48.010;7.832;2022-08-14T00:23:04;23.80;63.00
7566;DHT22;3824;48.010;7.832;2022-08-14T00:25:31;22.60;62.00
7566;DHT22;3824;48.010;7.832;2022-08-14T00:28:00;22.50;62.00
7566;DHT22;3824;48.010;7.832;2022-08-14T00:30:27;22.50;62.30
7566;DHT22;3824;48.010;7.832;2022-08-14T00:32:54;22.40;62.50
7566;DHT22;3824;48.010;7.832;2022-08-14T00:35:21;22.40;62.70
7566;DHT22;3824;48.010;7.832;2022-08-14T00:37:48;22.30;62.80
7566;DHT22;3824;48.010;7.832;2022-08-14T00:40:17;22.20;62.80
7566;DHT22;3824;48.010;7.832;2022-08-14T00:42:45;22.10;62.90
7566;DHT22;3824;48.010;7.832;2022-08-14T00:45:14;22.00;63.10
7566;DHT22;3824;48.010;7.832;2022-08-14T00:47:45;22.00;63.50
7566;DHT22;3824;48.010;7.832;2022-08-14T00:50:14;21.90;63.40
7566;DHT22;3824;48.010;7.832;2022-08-14T00:52:42;21.90;63.70
7566;DHT22;3824;48.010;7.832;2022-08-14T00:55:10;21.90;64.30
7566;DHT22;3824;48.010;7.832;2022-08-14T00:57:38;21.80;64.50
7566;DHT22;3824;48.010;7.832;2022-08-14T01:00:13;21.80;64.60
7566;DHT22;3824;48.010;7.832;2022-08-14T01:02:43;21.70;64.70
7566;DHT22;3824;48.010;7.832;2022-08-14T01:05:10;21.70;64.90
7566;DHT22;3824;48.010;7.832;2022-08-14T01:07:49;21.60;65.10
7566;DHT22;3824;48.010;7.832;2022-08-14T01:10:17;21.50;65.20
7566;DHT22;3824;48.010;7.832;2022-08-14T01:12:44;21.50;65.30
7566;DHT22;3824;48.010;7.832;2022-08-14T01:15:14;21.40;65.50
7566;DHT22;3824;48.010;7.832;2022-08-14T01:17:47;21.30;65.50
7566;DHT22;3824;48.010;7.832;2022-08-14T01:20:31;21.30;65.70
7566;DHT22;3824;48.010;7.832;2022-08-14T01:23:23;21.30;66.00
7566;DHT22;3824;48.010;7.832;2022-08-14T01:25:50;21.20;65.90
7566;DHT22;3824;48.010;7.832;2022-08-14T01:28:18;21.20;66.00
7566;DHT22;3824;48.010;7.832;2022-08-14T01:30:45;21.10;66.10
7566;DHT22;3824;48.010;7.832;2022-08-14T01:33:13;21.10;66.10
7566;DHT22;3824;48.010;7.832;2022-08-14T01:35:39;21.10;66.30
7566;DHT22;3824;48.010;7.832;2022-08-14T01:38:09;21.10;66.60
7566;DHT22;3824;48.010;7.832;2022-08-14T01:40:40;21.00;66.70
7566;DHT22;3824;48.010;7.832;2022-08-14T01:43:09;20.90;67.60
7566;DHT22;3824;48.010;7.832;2022-08-14T01:45:40;20.90;67.00
7566;DHT22;3824;48.010;7.832;2022-08-14T01:48:07;20.80;67.30
7566;DHT22;3824;48.010;7.832;2022-08-14T01:50:34;20.80;67.40
7566;DHT22;3824;48.010;7.832;2022-08-14T01:53:01;20.70;68.30
7566;DHT22;3824;48.010;7.832;2022-08-14T01:55:29;20.70;67.70
7566;DHT22;3824;48.010;7.832;2022-08-14T01:57:58;20.70;67.90
7566;DHT22;3824;48.010;7.832;2022-08-14T02:00:25;20.60;68.30
7566;DHT22;3824;48.010;7.832;2022-08-14T02:02:54;20.60;68.30
7566;DHT22;3824;48.010;7.832;2022-08-14T02:05:22;20.50;68.30
7566;DHT22;3824;48.010;7.832;2022-08-14T02:07:55;20.40;68.30
7566;DHT22;3824;48.010;7.832;2022-08-14T02:10:22;20.40;68.60
7566;DHT22;3824;48.010;7.832;2022-08-14T02:12:53;20.30;68.70
7566;DHT22;3824;48.010;7.832;2022-08-14T02:15:22;20.30;68.80
7566;DHT22;3824;48.010;7.832;2022-08-14T02:17:49;20.20;69.10
7566;DHT22;3824;48.010;7.832;2022-08-14T02:20:16;20.20;69.20
7566;DHT22;3824;48.010;7.832;2022-08-14T02:22:44;20.10;69.30
7566;DHT22;3824;48.010;7.832;2022-08-14T02:25:11;20.10;69.10
7566;DHT22;3824;48.010;7.832;2022-08-14T02:27:40;20.10;69.10
7566;DHT22;3824;48.010;7.832;2022-08-14T02:30:08;20.10;69.10
7566;DHT22;3824;48.010;7.832;2022-08-14T02:32:37;20.10;69.10
7566;DHT22;3824;48.010;7.832;2022-08-14T02:35:06;20.00;69.20
7566;DHT22;3824;48.010;7.832;2022-08-14T02:37:43;20.00;69.00
7566;DHT22;3824;48.010;7.832;2022-08-14T02:40:10;20.00;69.00
7566;DHT22;3824;48.010;7.832;2022-08-14T02:42:39;20.00;69.00
7566;DHT22;3824;48.010;7.832;2022-08-14T02:45:07;19.90;68.80
7566;DHT22;3824;48.010;7.832;2022-08-14T02:47:34;19.90;68.90
7566;DHT22;3824;48.010;7.832;2022-08-14T02:50:04;19.90;68.90
7566;DHT22;3824;48.010;7.832;2022-08-14T02:52:31;19.90;68.80
7566;DHT22;3824;48.010;7.832;2022-08-14T02:54:59;19.80;68.70
7566;DHT22;3824;48.010;7.832;2022-08-14T02:57:26;19.80;69.70
7566;DHT22;3824;48.010;7.832;2022-08-14T02:59:54;19.70;70.00
7566;DHT22;3824;48.010;7.832;2022-08-14T03:02:21;19.60;70.20
7566;DHT22;3824;48.010;7.832;2022-08-14T03:04:48;19.50;70.40
7566;DHT22;3824;48.010;7.832;2022-08-14T03:07:17;19.50;70.40
7566;DHT22;3824;48.010;7.832;2022-08-14T03:09:44;19.40;70.70
7566;DHT22;3824;48.010;7.832;2022-08-14T03:12:11;19.40;70.50
7566;DHT22;3824;48.010;7.832;2022-08-14T03:14:38;19.30;70.90
7566;DHT22;3824;48.010;7.832;2022-08-14T03:17:09;19.30;70.80
7566;DHT22;3824;48.010;7.832;2022-08-14T03:19:39;19.20;70.80
7566;DHT22;3824;48.010;7.832;2022-08-14T03:22:07;19.20;71.20
7566;DHT22;3824;48.010;7.832;2022-08-14T03:24:36;19.20;71.30
7566;DHT22;3824;48.010;7.832;2022-08-14T03:27:03;19.20;71.10
7566;DHT22;3824;48.010;7.832;2022-08-14T03:29:30;19.20;71.50
7566;DHT22;3824;48.010;7.832;2022-08-14T03:31:57;19.20;71.90
7566;DHT22;3824;48.010;7.832;2022-08-14T03:34:24;19.20;72.10
7566;DHT22;3824;48.010;7.832;2022-08-14T03:36:52;19.20;71.90
7566;DHT22;3824;48.010;7.832;2022-08-14T03:39:23;19.20;71.80
7566;DHT22;3824;48.010;7.832;2022-08-14T03:41:54;19.20;72.00
7566;DHT22;3824;48.010;7.832;2022-08-14T03:44:21;19.20;71.70
7566;DHT22;3824;48.010;7.832;2022-08-14T03:46:49;19.20;71.20
7566;DHT22;3824;48.010;7.832;2022-08-14T03:49:20;19.20;71.00
7566;DHT22;3824;48.010;7.832;2022-08-14T03:51:49;19.30;70.80
7566;DHT22;3824;48.010;7.832;2022-08-14T03:54:16;19.30;70.50
7566;DHT22;3824;48.010;7.832;2022-08-14T03:56:43;19.40;70.20
7566;DHT22;3824;48.010;7.832;2022-08-14T03:59:11;19.40;70.00
7566;DHT22;3824;48.010;7.832;2022-08-14T04:01:39;19.40;69.80
7566;DHT22;3824;48.010;7.832;2022-08-14T04:04:07;19.30;69.80
7566;DHT22;3824;48.010;7.832;2022-08-14T04:06:35;19.30;69.90
7566;DHT22;3824;48.010;7.832;2022-08-14T04:09:03;19.20;69.90
7566;DHT22;3824;48.010;7.832;2022-08-14T04:11:30;19.20;69.90
7566;DHT22;3824;48.010;7.832;2022-08-14T04:13:57;19.20;70.20
7566;DHT22;3824;48.010;7.832;2022-08-14T04:16:27;19.10;70.50
7566;DHT22;3824;48.010;7.832;2022-08-14T04:18:56;19.10;71.00
7566;DHT22;3824;48.010;7.832;2022-08-14T04:21:24;19.00;71.40
7566;DHT22;3824;48.010;7.832;2022-08-14T04:23:54;19.00;71.90
7566;DHT22;3824;48.010;7.832;2022-08-14T04:26:24;18.90;72.30
7566;DHT22;3824;48.010;7.832;2022-08-14T04:28:52;18.80;72.70
7566;DHT22;3824;48.010;7.832;2022-08-14T04:31:21;18.70;72.90
7566;DHT22;3824;48.010;7.832;2022-08-14T04:33:49;18.60;72.90
7566;DHT22;3824;48.010;7.832;2022-08-14T04:36:17;18.60;72.90
7566;DHT22;3824;48.010;7.832;2022-08-14T04:38:44;18.60;72.80
7566;DHT22;3824;48.010;7.832;2022-08-14T04:41:28;18.50;72.70
7566;DHT22;3824;48.010;7.832;2022-08-14T04:44:12;15.60;69.90
7566;DHT22;3824;48.010;7.832;2022-08-14T04:46:39;18.50;72.60
7566;DHT22;3824;48.010;7.832;2022-08-14T04:49:28;18.50;72.50
7566;DHT22;3824;48.010;7.832;2022-08-14T04:51:54;18.60;72.50
7566;DHT22;3824;48.010;7.832;2022-08-14T04:54:21;18.60;72.00
7566;DHT22;3824;48.010;7.832;2022-08-14T04:56:48;18.60;71.90
7566;DHT22;3824;48.010;7.832;2022-08-14T04:59:16;18.60;71.70
7566;DHT22;3824;48.010;7.832;2022-08-14T05:01:42;18.60;71.60
7566;DHT22;3824;48.010;7.832;2022-08-14T05:04:09;18.60;71.60
7566;DHT22;3824;48.010;7.832;2022-08-14T05:06:38;18.70;71.50
7566;DHT22;3824;48.010;7.832;2022-08-14T05:09:05;18.70;71.50
7566;DHT22;3824;48.010;7.832;2022-08-14T05:11:32;18.70;71.20
7566;DHT22;3824;48.010;7.832;2022-08-14T05:14:00;18.70;71.00
7566;DHT22;3824;48.010;7.832;2022-08-14T05:16:27;18.80;70.90
7566;DHT22;3824;48.010;7.832;2022-08-14T05:18:56;18.80;70.40
7566;DHT22;3824;48.010;7.832;2022-08-14T05:21:23;18.90;70.30
7566;DHT22;3824;48.010;7.832;2022-08-14T05:23:55;18.90;70.00
7566;DHT22;3824;48.010;7.832;2022-08-14T05:26:21;19.00;70.20
7566;DHT22;3824;48.010;7.832;2022-08-14T05:28:48;19.10;70.20
7566;DHT22;3824;48.010;7.832;2022-08-14T05:31:15;19.20;70.20
7566;DHT22;3824;48.010;7.832;2022-08-14T05:33:44;19.30;69.90
7566;DHT22;3824;48.010;7.832;2022-08-14T05:36:11;19.30;69.80
7566;DHT22;3824;48.010;7.832;2022-08-14T05:38:42;19.40;69.40
7566;DHT22;3824;48.010;7.832;2022-08-14T05:41:12;19.40;69.00
7566;DHT22;3824;48.010;7.832;2022-08-14T05:43:40;19.50;68.80
7566;DHT22;3824;48.010;7.832;2022-08-14T05:46:10;19.50;68.60
7566;DHT22;3824;48.010;7.832;2022-08-14T05:48:37;19.60;68.60
7566;DHT22;3824;48.010;7.832;2022-08-14T05:51:04;19.60;68.80
7566;DHT22;3824;48.010;7.832;2022-08-14T05:53:31;19.60;69.40
7566;DHT22;3824;48.010;7.832;2022-08-14T05:55:58;19.50;71.00
7566;DHT22;3824;48.010;7.832;2022-08-14T05:58:27;19.30;72.50
7566;DHT22;3824;48.010;7.832;2022-08-14T06:00:54;19.20;73.60
7566;DHT22;3824;48.010;7.832;2022-08-14T06:03:22;19.10;73.70
7566;DHT22;3824;48.010;7.832;2022-08-14T06:05:52;19.10;74.30
7566;DHT22;3824;48.010;7.832;2022-08-14T06:08:20;19.00;75.10
7566;DHT22;3824;48.010;7.832;2022-08-14T06:10:48;19.10;75.00
7566;DHT22;3824;48.010;7.832;2022-08-14T06:13:16;19.10;75.10
7566;DHT22;3824;48.010;7.832;2022-08-14T06:15:45;19.10;75.40
7566;DHT22;3824;48.010;7.832;2022-08-14T06:18:13;19.20;75.40
7566;DHT22;3824;48.010;7.832;2022-08-14T06:20:40;19.20;75.20
7566;DHT22;3824;48.010;7.832;2022-08-14T06:23:07;19.20;75.40
7566;DHT22;3824;48.010;7.832;2022-08-14T06:25:34;19.30;75.30
7566;DHT22;3824;48.010;7.832;2022-08-14T06:28:01;19.40;75.10
7566;DHT22;3824;48.010;7.832;2022-08-14T06:30:30;19.60;75.10
7566;DHT22;3824;48.010;7.832;2022-08-14T06:32:59;19.70;74.60
7566;DHT22;3824;48.010;7.832;2022-08-14T06:35:26;20.00;74.40
7566;DHT22;3824;48.010;7.832;2022-08-14T06:37:54;20.10;73.40
7566;DHT22;3824;48.010;7.832;2022-08-14T06:40:23;20.20;73.30
7566;DHT22;3824;48.010;7.832;2022-08-14T06:42:50;20.30;72.60
7566;DHT22;3824;48.010;7.832;2022-08-14T06:45:17;20.30;72.40
7566;DHT22;3824;48.010;7.832;2022-08-14T06:47:45;20.40;71.70
7566;DHT22;3824;48.010;7.832;2022-08-14T06:50:16;20.50;71.80
7566;DHT22;3824;48.010;7.832;2022-08-14T06:52:44;20.60;72.10
7566;DHT22;3824;48.010;7.832;2022-08-14T06:55:12;20.80;71.70
7566;DHT22;3824;48.010;7.832;2022-08-14T06:57:41;21.00;70.90
7566;DHT22;3824;48.010;7.832;2022-08-14T07:00:12;21.20;70.50
7566;DHT22;3824;48.010;7.832;2022-08-14T07:02:39;21.30;69.90
7566;DHT22;3824;48.010;7.832;2022-08-14T07:05:25;21.50;69.00
7566;DHT22;3824;48.010;7.832;2022-08-14T07:08:11;21.60;68.40
7566;DHT22;3824;48.010;7.832;2022-08-14T07:10:40;21.80;68.60
7566;DHT22;3824;48.010;7.832;2022-08-14T07:13:08;22.00;68.60
7566;DHT22;3824;48.010;7.832;2022-08-14T07:15:35;22.20;68.30
7566;DHT22;3824;48.010;7.832;2022-08-14T07:18:03;22.40;67.90
7566;DHT22;3824;48.010;7.832;2022-08-14T07:20:32;22.60;67.60
7566;DHT22;3824;48.010;7.832;2022-08-14T07:22:59;22.80;67.20
7566;DHT22;3824;48.010;7.832;2022-08-14T07:25:27;23.00;66.80
7566;DHT22;3824;48.010;7.832;2022-08-14T07:27:54;23.30;66.60
7566;DHT22;3824;48.010;7.832;2022-08-14T07:30:21;23.40;65.90
7566;DHT22;3824;48.010;7.832;2022-08-14T07:32:48;23.60;65.70
7566;DHT22;3824;48.010;7.832;2022-08-14T07:35:15;23.80;65.50
7566;DHT22;3824;48.010;7.832;2022-08-14T07:37:46;23.90;64.80
7566;DHT22;3824;48.010;7.832;2022-08-14T07:40:13;24.10;64.40
7566;DHT22;3824;48.010;7.832;2022-08-14T07:42:40;24.20;64.10
7566;DHT22;3824;48.010;7.832;2022-08-14T07:45:07;24.30;63.60
7566;DHT22;3824;48.010;7.832;2022-08-14T07:47:39;24.50;63.60
7566;DHT22;3824;48.010;7.832;2022-08-14T07:50:11;24.70;62.80
7566;DHT22;3824;48.010;7.832;2022-08-14T07:52:39;24.80;62.50
7566;DHT22;3824;48.010;7.832;2022-08-14T07:55:09;24.80;61.90
7566;DHT22;3824;48.010;7.832;2022-08-14T07:57:37;24.90;62.50
7566;DHT22;3824;48.010;7.832;2022-08-14T08:00:07;25.00;62.80
7566;DHT22;3824;48.010;7.832;2022-08-14T08:02:38;25.00;63.00
7566;DHT22;3824;48.010;7.832;2022-08-14T08:05:06;25.00;62.70
7566;DHT22;3824;48.010;7.832;2022-08-14T08:07:34;25.00;62.70
7566;DHT22;3824;48.010;7.832;2022-08-14T08:10:04;25.10;62.30
7566;DHT22;3824;48.010;7.832;2022-08-14T08:12:53;25.10;62.80
7566;DHT22;3824;48.010;7.832;2022-08-14T08:15:22;25.20;62.20
7566;DHT22;3824;48.010;7.832;2022-08-14T08:17:50;25.30;62.00
7566;DHT22;3824;48.010;7.832;2022-08-14T08:20:17;25.30;62.20
7566;DHT22;3824;48.010;7.832;2022-08-14T08:22:45;25.40;62.40
7566;DHT22;3824;48.010;7.832;2022-08-14T08:25:12;25.40;61.40
7566;DHT22;3824;48.010;7.832;2022-08-14T08:27:39;25.50;61.60
7566;DHT22;3824;48.010;7.832;2022-08-14T08:30:09;25.50;61.30
7566;DHT22;3824;48.010;7.832;2022-08-14T08:32:40;25.50;61.30
7566;DHT22;3824;48.010;7.832;2022-08-14T08:35:16;25.50;61.80
7566;DHT22;3824;48.010;7.832;2022-08-14T08:37:45;25.50;62.30
7566;DHT22;3824;48.010;7.832;2022-08-14T08:40:21;25.50;62.30
7566;DHT22;3824;48.010;7.832;2022-08-14T08:42:48;25.50;62.40
7566;DHT22;3824;48.010;7.832;2022-08-14T08:45:17;25.60;62.50
7566;DHT22;3824;48.010;7.832;2022-08-14T08:47:44;25.60;62.20
7566;DHT22;3824;48.010;7.832;2022-08-14T08:50:16;25.70;62.60
7566;DHT22;3824;48.010;7.832;2022-08-14T08:52:49;25.80;61.30
7566;DHT22;3824;48.010;7.832;2022-08-14T08:55:26;25.90;61.10
7566;DHT22;3824;48.010;7.832;2022-08-14T08:57:55;26.00;60.70
7566;DHT22;3824;48.010;7.832;2022-08-14T09:00:23;26.10;60.80
7566;DHT22;3824;48.010;7.832;2022-08-14T09:02:55;26.20;60.50
7566;DHT22;3824;48.010;7.832;2022-08-14T09:05:23;26.30;60.20
7566;DHT22;3824;48.010;7.832;2022-08-14T09:07:50;26.40;60.20
7566;DHT22;3824;48.010;7.832;2022-08-14T09:10:16;26.40;60.20
7566;DHT22;3824;48.010;7.832;2022-08-14T09:12:44;26.60;60.00
7566;DHT22;3824;48.010;7.832;2022-08-14T09:15:11;26.70;59.70
7566;DHT22;3824;48.010;7.832;2022-08-14T09:17:40;26.90;59.30
7566;DHT22;3824;48.010;7.832;2022-08-14T09:20:07;27.00;59.40
7566;DHT22;3824;48.010;7.832;2022-08-14T09:22:34;27.10;58.70
7566;DHT22;3824;48.010;7.832;2022-08-14T09:25:02;27.20;58.20
7566;DHT22;3824;48.010;7.832;2022-08-14T09:27:30;27.30;58.10
7566;DHT22;3824;48.010;7.832;2022-08-14T09:29:57;27.40;58.00
7566;DHT22;3824;48.010;7.832;2022-08-14T09:32:35;27.50;58.00
7566;DHT22;3824;48.010;7.832;2022-08-14T09:35:13;27.50;57.50
7566;DHT22;3824;48.010;7.832;2022-08-14T09:37:52;27.50;56.70
7566;DHT22;3824;48.010;7.832;2022-08-14T09:40:26;27.40;55.70
7566;DHT22;3824;48.010;7.832;2022-08-14T09:43:06;27.50;56.60
7566;DHT22;3824;48.010;7.832;2022-08-14T09:45:41;27.60;56.20
7566;DHT22;3824;48.010;7.832;2022-08-14T09:48:14;27.70;56.00
7566;DHT22;3824;48.010;7.832;2022-08-14T09:50:48;27.80;56.00
7566;DHT22;3824;48.010;7.832;2022-08-14T09:53:17;27.90;55.50
7566;DHT22;3824;48.010;7.832;2022-08-14T09:55:56;28.00;55.00
7566;DHT22;3824;48.010;7.832;2022-08-14T09:58:35;28.00;54.40
7566;DHT22;3824;48.010;7.832;2022-08-14T10:01:08;28.00;54.30
7566;DHT22;3824;48.010;7.832;2022-08-14T10:03:37;27.90;53.70
7566;DHT22;3824;48.010;7.832;2022-08-14T10:06:15;27.80;53.80
7566;DHT22;3824;48.010;7.832;2022-08-14T10:08:45;27.70;53.90
7566;DHT22;3824;48.010;7.832;2022-08-14T10:11:13;27.70;54.00
7566;DHT22;3824;48.010;7.832;2022-08-14T10:13:42;27.80;54.10
7566;DHT22;3824;48.010;7.832;2022-08-14T10:16:09;27.80;54.30
7566;DHT22;3824;48.010;7.832;2022-08-14T10:18:37;27.90;54.00
7566;DHT22;3824;48.010;7.832;2022-08-14T10:21:06;28.00;53.60
7566;DHT22;3824;48.010;7.832;2022-08-14T10:23:40;28.00;52.70
7566;DHT22;3824;48.010;7.832;2022-08-14T10:26:13;28.10;52.60
7566;DHT22;3824;48.010;7.832;2022-08-14T10:28:44;28.10;52.90
7566;DHT22;3824;48.010;7.832;2022-08-14T10:31:19;28.10;52.40
7566;DHT22;3824;48.010;7.832;2022-08-14T10:34:03;28.20;52.10
7566;DHT22;3824;48.010;7.832;2022-08-14T10:36:32;28.30;52.60
7566;DHT22;3824;48.010;7.832;2022-08-14T10:39:04;28.50;53.20
7566;DHT22;3824;48.010;7.832;2022-08-14T10:41:36;28.60;53.10
7566;DHT22;3824;48.010;7.832;2022-08-14T10:44:07;28.70;53.20
7566;DHT22;3824;48.010;7.832;2022-08-14T10:46:39;28.70;53.20
7566;DHT22;3824;48.010;7.832;2022-08-14T10:49:16;28.90;53.10
7566;DHT22;3824;48.010;7.832;2022-08-14T10:51:54;29.10;52.80
7566;DHT22;3824;48.010;7.832;2022-08-14T10:54:30;29.20;52.50
7566;DHT22;3824;48.010;7.832;2022-08-14T10:57:10;29.30;51.90
7566;DHT22;3824;48.010;7.832;2022-08-14T10:59:42;29.50;51.30
7566;DHT22;3824;48.010;7.832;2022-08-14T11:02:21;29.60;51.30
7566;DHT22;3824;48.010;7.832;2022-08-14T11:04:58;29.70;51.00
7566;DHT22;3824;48.010;7.832;2022-08-14T11:07:26;29.80;50.40
7566;DHT22;3824;48.010;7.832;2022-08-14T11:09:55;30.00;50.40
7566;DHT22;3824;48.010;7.832;2022-08-14T11:12:23;30.10;50.40
7566;DHT22;3824;48.010;7.832;2022-08-14T11:14:55;30.40;50.00
7566;DHT22;3824;48.010;7.832;2022-08-14T11:17:24;30.70;49.40
7566;DHT22;3824;48.010;7.832;2022-08-14T11:19:56;30.90;48.40
7566;DHT22;3824;48.010;7.832;2022-08-14T11:22:28;31.10;48.70
7566;DHT22;3824;48.010;7.832;2022-08-14T11:25:01;31.30;48.90
7566;DHT22;3824;48.010;7.832;2022-08-14T11:27:30;31.50;49.40
7566;DHT22;3824;48.010;7.832;2022-08-14T11:29:59;31.50;49.80
7566;DHT22;3824;48.010;7.832;2022-08-14T11:32:26;31.40;50.00
7566;DHT22;3824;48.010;7.832;2022-08-14T11:34:55;31.30;50.50
7566;DHT22;3824;48.010;7.832;2022-08-14T11:37:22;31.30;51.00
7566;DHT22;3824;48.010;7.832;2022-08-14T11:39:49;31.30;51.50
7566;DHT22;3824;48.010;7.832;2022-08-14T11:42:22;31.40;51.40
7566;DHT22;3824;48.010;7.832;2022-08-14T11:44:49;30.10;50.40
7566;DHT22;3824;48.010;7.832;2022-08-14T11:47:17;31.70;51.20
7566;DHT22;3824;48.010;7.832;2022-08-14T11:49:45;31.80;52.10
7566;DHT22;3824;48.010;7.832;2022-08-14T11:52:13;31.80;53.20
7566;DHT22;3824;48.010;7.832;2022-08-14T11:54:40;31.80;53.90
7566;DHT22;3824;48.010;7.832;2022-08-14T11:57:13;31.80;54.30
7566;DHT22;3824;48.010;7.832;2022-08-14T11:59:42;31.70;55.00
7566;DHT22;3824;48.010;7.832;2022-08-14T12:02:10;31.70;57.20
7566;DHT22;3824;48.010;7.832;2022-08-14T12:04:47;31.60;58.80
7566;DHT22;3824;48.010;7.832;2022-08-14T12:07:15;31.70;59.60
7566;DHT22;3824;48.010;7.832;2022-08-14T12:09:43;31.70;59.80
7566;DHT22;3824;48.010;7.832;2022-08-14T12:12:14;31.60;60.40
7566;DHT22;3824;48.010;7.832;2022-08-14T12:14:51;31.50;60.50
7566;DHT22;3824;48.010;7.832;2022-08-14T12:17:21;31.30;61.30
7566;DHT22;3824;48.010;7.832;2022-08-14T12:19:50;31.10;61.60
7566;DHT22;3824;48.010;7.832;2022-08-14T12:22:18;31.00;62.20
7566;DHT22;3824;48.010;7.832;2022-08-14T12:24:48;30.80;62.90
7566;DHT22;3824;48.010;7.832;2022-08-14T12:27:15;30.70;63.20
7566;DHT22;3824;48.010;7.832;2022-08-14T12:29:53;30.60;63.30
7566;DHT22;3824;48.010;7.832;2022-08-14T12:32:21;30.60;63.30
7566;DHT22;3824;48.010;7.832;2022-08-14T12:34:52;30.60;63.40
7566;DHT22;3824;48.010;7.832;2022-08-14T12:37:28;30.60;63.30
7566;DHT22;3824;48.010;7.832;2022-08-14T12:40:08;30.80;63.00
7566;DHT22;3824;48.010;7.832;2022-08-14T12:42:35;30.90;62.50
7566;DHT22;3824;48.010;7.832;2022-08-14T12:45:06;30.90;62.10
7566;DHT22;3824;48.010;7.832;2022-08-14T12:47:35;31.00;62.20
7566;DHT22;3824;48.010;7.832;2022-08-14T12:50:03;31.00;61.60
7566;DHT22;3824;48.010;7.832;2022-08-14T12:52:31;31.00;61.80
7566;DHT22;3824;48.010;7.832;2022-08-14T12:54:59;31.10;61.80
7566;DHT22;3824;48.010;7.832;2022-08-14T12:57:35;31.10;61.70
7566;DHT22;3824;48.010;7.832;2022-08-14T13:00:12;31.10;61.90
7566;DHT22;3824;48.010;7.832;2022-08-14T13:02:40;31.20;61.80
7566;DHT22;3824;48.010;7.832;2022-08-14T13:05:08;31.20;61.80
7566;DHT22;3824;48.010;7.832;2022-08-14T13:07:37;31.20;61.40
7566;DHT22;3824;48.010;7.832;2022-08-14T13:10:06;31.30;61.20
7566;DHT22;3824;48.010;7.832;2022-08-14T13:12:36;31.30;59.30
7566;DHT22;3824;48.010;7.832;2022-08-14T13:15:05;31.30;59.30
7566;DHT22;3824;48.010;7.832;2022-08-14T13:17:39;31.30;56.70
7566;DHT22;3824;48.010;7.832;2022-08-14T13:20:08;31.10;54.00
7566;DHT22;3824;48.010;7.832;2022-08-14T13:22:37;30.90;53.20
7566;DHT22;3824;48.010;7.832;2022-08-14T13:25:07;30.70;52.80
7566;DHT22;3824;48.010;7.832;2022-08-14T13:27:35;30.70;52.80
7566;DHT22;3824;48.010;7.832;2022-08-14T13:30:04;30.60;53.10
7566;DHT22;3824;48.010;7.832;2022-08-14T13:32:33;30.60;52.40
7566;DHT22;3824;48.010;7.832;2022-08-14T13:35:04;30.60;52.60
7566;DHT22;3824;48.010;7.832;2022-08-14T13:37:31;30.70;52.30
7566;DHT22;3824;48.010;7.832;2022-08-14T13:39:59;30.80;52.00
7566;DHT22;3824;48.010;7.832;2022-08-14T13:42:26;30.90;51.90
7566;DHT22;3824;48.010;7.832;2022-08-14T13:44:54;31.10;52.00
7566;DHT22;3824;48.010;7.832;2022-08-14T13:47:26;31.20;51.50
7566;DHT22;3824;48.010;7.832;2022-08-14T13:49:57;31.20;51.50
7566;DHT22;3824;48.010;7.832;2022-08-14T13:52:29;31.20;51.90
7566;DHT22;3824;48.010;7.832;2022-08-14T13:55:02;31.00;52.10
7566;DHT22;3824;48.010;7.832;2022-08-14T13:57:31;30.90;52.40
7566;DHT22;3824;48.010;7.832;2022-08-14T14:00:01;30.80;52.90
7566;DHT22;3824;48.010;7.832;2022-08-14T14:02:31;30.60;52.60
7566;DHT22;3824;48.010;7.832;2022-08-14T14:05:03;30.40;52.60
7566;DHT22;3824;48.010;7.832;2022-08-14T14:07:32;30.20;52.80
7566;DHT22;3824;48.010;7.832;2022-08-14T14:10:02;30.10;53.10
7566;DHT22;3824;48.010;7.832;2022-08-14T14:12:30;30.10;53.80
7566;DHT22;3824;48.010;7.832;2022-08-14T14:14:59;29.00;53.50
7566;DHT22;3824;48.010;7.832;2022-08-14T14:17:27;30.00;54.70
7566;DHT22;3824;48.010;7.832;2022-08-14T14:19:57;30.00;54.80
7566;DHT22;3824;48.010;7.832;2022-08-14T14:22:25;30.10;55.00
7566;DHT22;3824;48.010;7.832;2022-08-14T14:24:53;30.10;55.30
7566;DHT22;3824;48.010;7.832;2022-08-14T14:27:22;30.20;55.50
7566;DHT22;3824;48.010;7.832;2022-08-14T14:29:55;30.20;55.10
7566;DHT22;3824;48.010;7.832;2022-08-14T14:32:26;30.20;54.70
7566;DHT22;3824;48.010;7.832;2022-08-14T14:34:53;30.30;54.40
7566;DHT22;3824;48.010;7.832;2022-08-14T14:37:21;30.40;54.30
7566;DHT22;3824;48.010;7.832;2022-08-14T14:39:50;30.40;53.70
7566;DHT22;3824;48.010;7.832;2022-08-14T14:42:19;30.40;54.00
7566;DHT22;3824;48.010;7.832;2022-08-14T14:44:46;30.40;54.30
7566;DHT22;3824;48.010;7.832;2022-08-14T14:47:18;30.40;54.60
7566;DHT22;3824;48.010;7.832;2022-08-14T14:49:47;30.40;55.00
7566;DHT22;3824;48.010;7.832;2022-08-14T14:52:15;30.40;54.40
7566;DHT22;3824;48.010;7.832;2022-08-14T14:54:43;30.20;54.20
7566;DHT22;3824;48.010;7.832;2022-08-14T14:57:13;30.10;53.90
7566;DHT22;3824;48.010;7.832;2022-08-14T14:59:42;30.10;54.30
7566;DHT22;3824;48.010;7.832;2022-08-14T15:02:16;30.00;54.50
7566;DHT22;3824;48.010;7.832;2022-08-14T15:04:48;29.80;54.30
7566;DHT22;3824;48.010;7.832;2022-08-14T15:07:15;29.80;54.60
7566;DHT22;3824;48.010;7.832;2022-08-14T15:09:44;29.70;55.10
7566;DHT22;3824;48.010;7.832;2022-08-14T15:12:12;29.60;55.30
7566;DHT22;3824;48.010;7.832;2022-08-14T15:14:39;29.50;55.40
7566;DHT22;3824;48.010;7.832;2022-08-14T15:17:06;29.40;55.50
7566;DHT22;3824;48.010;7.832;2022-08-14T15:19:34;29.40;55.70
7566;DHT22;3824;48.010;7.832;2022-08-14T15:22:01;29.40;56.00
7566;DHT22;3824;48.010;7.832;2022-08-14T15:24:28;29.30;56.30
7566;DHT22;3824;48.010;7.832;2022-08-14T15:26:55;29.30;56.40
7566;DHT22;3824;48.010;7.832;2022-08-14T15:29:23;29.20;56.20
7566;DHT22;3824;48.010;7.832;2022-08-14T15:31:50;29.20;56.70
7566;DHT22;3824;48.010;7.832;2022-08-14T15:34:18;29.10;57.10
7566;DHT22;3824;48.010;7.832;2022-08-14T15:36:45;29.00;57.60
7566;DHT22;3824;48.010;7.832;2022-08-14T15:39:13;29.00;58.00
7566;DHT22;3824;48.010;7.832;2022-08-14T15:41:40;28.90;59.10
7566;DHT22;3824;48.010;7.832;2022-08-14T15:44:08;28.80;58.70
7566;DHT22;3824;48.010;7.832;2022-08-14T15:46:38;28.70;59.10
7566;DHT22;3824;48.010;7.832;2022-08-14T15:49:05;28.60;59.60
7566;DHT22;3824;48.010;7.832;2022-08-14T15:51:33;28.50;59.80
7566;DHT22;3824;48.010;7.832;2022-08-14T15:54:01;28.30;60.10
7566;DHT22;3824;48.010;7.832;2022-08-14T15:56:28;28.20;60.50
7566;DHT22;3824;48.010;7.832;2022-08-14T15:58:54;28.00;61.10
7566;DHT22;3824;48.010;7.832;2022-08-14T16:01:22;27.90;61.70
7566;DHT22;3824;48.010;7.832;2022-08-14T16:03:53;27.70;62.20
7566;DHT22;3824;48.010;7.832;2022-08-14T16:06:22;27.60;62.80
7566;DHT22;3824;48.010;7.832;2022-08-14T16:08:52;27.50;63.50
7566;DHT22;3824;48.010;7.832;2022-08-14T16:11:19;27.40;64.50
7566;DHT22;3824;48.010;7.832;2022-08-14T16:13:48;27.30;65.10
7566;DHT22;3824;48.010;7.832;2022-08-14T16:16:17;27.20;65.50